sensor_id;sensor_type;location;lat;lon;timestamp;temperature;humidity
21627;DHT22;10975;47.872;12.972;2022-07-29T00:02:25;20.80;99.90
21627;DHT22;10975;47.872;12.972;2022-07-29T00:04:51;20.80;99.90
21627;DHT22;10975;47.872;12.972;2022-07-29T00:07:18;20.80;99.90
21627;DHT22;10975;47.872;12.972;2022-07-29T00:09:45;20.80;99.90
21627;DHT22;10975;47.872;12.972;2022-07-29T00:12:18;20.70;99.90
21627;DHT22;10975;47.872;12.972;2022-07-29T00:14:55;20.70;99.90
21627;DHT22;10975;47.872;12.972;2022-07-29T00:17:25;20.60;99.90
21627;DHT22;10975;47.872;12.972;2022-07-29T00:19:52;20.60;99.90
21627;DHT22;10975;47.872;12.972;2022-07-29T00:22:19;20.60;99.90
21627;DHT22;10975;47.872;12.972;2022-07-29T00:24:48;20.50;99.90
21627;DHT22;10975;47.872;12.972;2022-07-29T00:27:16;20.40;99.90
21627;DHT22;10975;47.872;12.972;2022-07-29T00:29:43;20.40;99.90
21627;DHT22;10975;47.872;12.972;2022-07-29T00:32:09;20.40;99.90
21627;DHT22;10975;47.872;12.972;2022-07-29T00:34:36;20.40;99.90
21627;DHT22;10975;47.872;12.972;2022-07-29T00:37:22;20.40;99.90
21627;DHT22;10975;47.872;12.972;2022-07-29T00:39:48;20.30;99.90
21627;DHT22;10975;47.872;12.972;2022-07-29T00:42:15;20.30;99.90
21627;DHT22;10975;47.872;12.972;2022-07-29T00:44:43;20.30;99.90
21627;DHT22;10975;47.872;12.972;2022-07-29T00:47:10;20.20;99.90
21627;DHT22;10975;47.872;12.972;2022-07-29T00:49:38;20.20;99.90
21627;DHT22;10975;47.872;12.972;2022-07-29T00:52:05;20.20;99.90
21627;DHT22;10975;47.872;12.972;2022-07-29T00:54:32;20.20;99.90
21627;DHT22;10975;47.872;12.972;2022-07-29T00:57:00;20.20;99.90
21627;DHT22;10975;47.872;12.972;2022-07-29T00:59:27;20.30;99.90
21627;DHT22;10975;47.872;12.972;2022-07-29T01:02:01;20.30;99.90
21627;DHT22;10975;47.872;12.972;2022-07-29T01:04:29;20.30;99.90
21627;DHT22;10975;47.872;12.972;2022-07-29T01:06:56;20.30;99.90
21627;DHT22;10975;47.872;12.972;2022-07-29T01:09:23;20.30;99.90
21627;DHT22;10975;47.872;12.972;2022-07-29T01:12:09;20.20;99.90
21627;DHT22;10975;47.872;12.972;2022-07-29T01:14:36;20.20;99.90
21627;DHT22;10975;47.872;12.972;2022-07-29T01:17:18;20.20;99.90
21627;DHT22;10975;47.872;12.972;2022-07-29T01:22:25;20.30;99.90
21627;DHT22;10975;47.872;12.972;2022-07-29T01:27:41;20.20;99.90
21627;DHT22;10975;47.872;12.972;2022-07-29T01:30:11;20.20;99.90
21627;DHT22;10975;47.872;12.972;2022-07-29T01:32:41;20.20;99.90
21627;DHT22;10975;47.872;12.972;2022-07-29T01:35:16;20.20;99.90
21627;DHT22;10975;47.872;12.972;2022-07-29T01:42:59;20.20;99.90
21627;DHT22;10975;47.872;12.972;2022-07-29T01:45:27;20.20;99.90
21627;DHT22;10975;47.872;12.972;2022-07-29T01:48:00;20.20;99.90
21627;DHT22;10975;47.872;12.972;2022-07-29T01:50:31;20.20;99.90
21627;DHT22;10975;47.872;12.972;2022-07-29T01:53:00;20.10;99.90
21627;DHT22;10975;47.872;12.972;2022-07-29T01:55:38;20.10;99.90
21627;DHT22;10975;47.872;12.972;2022-07-29T01:58:05;20.10;99.90
21627;DHT22;10975;47.872;12.972;2022-07-29T02:00:33;20.10;99.90
21627;DHT22;10975;47.872;12.972;2022-07-29T02:03:02;20.10;99.90
21627;DHT22;10975;47.872;12.972;2022-07-29T02:05:30;20.10;99.90
21627;DHT22;10975;47.872;12.972;2022-07-29T02:07:58;20.00;99.90
21627;DHT22;10975;47.872;12.972;2022-07-29T02:10:27;20.00;99.90
21627;DHT22;10975;47.872;12.972;2022-07-29T02:12:55;20.10;99.90
21627;DHT22;10975;47.872;12.972;2022-07-29T02:15:27;20.10;99.90
21627;DHT22;10975;47.872;12.972;2022-07-29T02:18:14;20.10;99.90
21627;DHT22;10975;47.872;12.972;2022-07-29T02:20:45;20.10;99.90
21627;DHT22;10975;47.872;12.972;2022-07-29T02:23:14;20.00;99.90
21627;DHT22;10975;47.872;12.972;2022-07-29T02:25:44;20.00;99.90
21627;DHT22;10975;47.872;12.972;2022-07-29T02:28:11;20.00;99.90
21627;DHT22;10975;47.872;12.972;2022-07-29T02:30:40;20.00;99.90
21627;DHT22;10975;47.872;12.972;2022-07-29T02:33:08;20.00;99.90
21627;DHT22;10975;47.872;12.972;2022-07-29T02:35:36;20.00;99.90
21627;DHT22;10975;47.872;12.972;2022-07-29T02:38:03;20.00;99.90
21627;DHT22;10975;47.872;12.972;2022-07-29T02:40:48;20.00;99.90
21627;DHT22;10975;47.872;12.972;2022-07-29T02:43:17;20.00;99.90
21627;DHT22;10975;47.872;12.972;2022-07-29T02:45:44;20.00;99.90
21627;DHT22;10975;47.872;12.972;2022-07-29T02:48:17;20.00;99.90
21627;DHT22;10975;47.872;12.972;2022-07-29T02:50:51;19.90;99.90
21627;DHT22;10975;47.872;12.972;2022-07-29T02:53:20;19.90;99.90
21627;DHT22;10975;47.872;12.972;2022-07-29T02:55:51;19.90;99.90
21627;DHT22;10975;47.872;12.972;2022-07-29T03:00:52;19.90;99.90
21627;DHT22;10975;47.872;12.972;2022-07-29T03:03:19;19.90;99.90
21627;DHT22;10975;47.872;12.972;2022-07-29T03:05:47;19.90;99.90
21627;DHT22;10975;47.872;12.972;2022-07-29T03:08:14;19.80;99.90
21627;DHT22;10975;47.872;12.972;2022-07-29T03:10:43;19.80;99.90
21627;DHT22;10975;47.872;12.972;2022-07-29T03:13:10;19.80;99.90
21627;DHT22;10975;47.872;12.972;2022-07-29T03:15:38;19.80;99.90
21627;DHT22;10975;47.872;12.972;2022-07-29T03:18:05;19.80;99.90
21627;DHT22;10975;47.872;12.972;2022-07-29T03:20:32;19.80;99.90
21627;DHT22;10975;47.872;12.972;2022-07-29T03:22:59;19.80;99.90
21627;DHT22;10975;47.872;12.972;2022-07-29T03:25:26;19.80;99.90
21627;DHT22;10975;47.872;12.972;2022-07-29T03:27:53;19.90;99.90
21627;DHT22;10975;47.872;12.972;2022-07-29T03:30:20;19.80;99.90
21627;DHT22;10975;47.872;12.972;2022-07-29T03:32:48;19.80;99.90
21627;DHT22;10975;47.872;12.972;2022-07-29T03:35:18;19.80;99.90
21627;DHT22;10975;47.872;12.972;2022-07-29T03:37:45;19.90;99.90
21627;DHT22;10975;47.872;12.972;2022-07-29T03:40:14;19.90;99.90
21627;DHT22;10975;47.872;12.972;2022-07-29T03:42:43;19.90;99.90
21627;DHT22;10975;47.872;12.972;2022-07-29T03:45:12;19.90;99.90
21627;DHT22;10975;47.872;12.972;2022-07-29T03:47:40;19.80;99.90
21627;DHT22;10975;47.872;12.972;2022-07-29T03:50:16;19.80;99.90
21627;DHT22;10975;47.872;12.972;2022-07-29T03:52:45;19.80;99.90
21627;DHT22;10975;47.872;12.972;2022-07-29T03:55:11;19.80;99.90
21627;DHT22;10975;47.872;12.972;2022-07-29T03:57:38;19.80;99.90
21627;DHT22;10975;47.872;12.972;2022-07-29T04:00:06;19.80;99.90
21627;DHT22;10975;47.872;12.972;2022-07-29T04:02:33;19.80;99.90
21627;DHT22;10975;47.872;12.972;2022-07-29T04:05:00;19.80;99.90
21627;DHT22;10975;47.872;12.972;2022-07-29T04:07:27;19.80;99.90
21627;DHT22;10975;47.872;12.972;2022-07-29T04:09:54;19.80;99.90
21627;DHT22;10975;47.872;12.972;2022-07-29T04:12:20;19.80;99.90
21627;DHT22;10975;47.872;12.972;2022-07-29T04:14:47;19.80;99.90
21627;DHT22;10975;47.872;12.972;2022-07-29T04:17:15;19.80;99.90
21627;DHT22;10975;47.872;12.972;2022-07-29T04:19:41;19.90;99.90
21627;DHT22;10975;47.872;12.972;2022-07-29T04:22:08;19.90;99.90
21627;DHT22;10975;47.872;12.972;2022-07-29T04:24:35;19.90;99.90
21627;DHT22;10975;47.872;12.972;2022-07-29T04:27:02;19.90;99.90
21627;DHT22;10975;47.872;12.972;2022-07-29T04:29:28;19.90;99.90
21627;DHT22;10975;47.872;12.972;2022-07-29T04:31:55;19.90;99.90
21627;DHT22;10975;47.872;12.972;2022-07-29T04:34:22;19.90;99.90
21627;DHT22;10975;47.872;12.972;2022-07-29T04:36:53;19.90;99.90
21627;DHT22;10975;47.872;12.972;2022-07-29T04:39:20;19.80;99.90
21627;DHT22;10975;47.872;12.972;2022-07-29T04:41:49;19.90;99.90
21627;DHT22;10975;47.872;12.972;2022-07-29T04:44:18;19.90;99.90
21627;DHT22;10975;47.872;12.972;2022-07-29T04:46:45;19.90;99.90
21627;DHT22;10975;47.872;12.972;2022-07-29T04:49:12;20.00;99.90
21627;DHT22;10975;47.872;12.972;2022-07-29T04:51:39;20.00;99.90
21627;DHT22;10975;47.872;12.972;2022-07-29T04:54:06;20.00;99.90
21627;DHT22;10975;47.872;12.972;2022-07-29T04:56:33;20.00;99.90
21627;DHT22;10975;47.872;12.972;2022-07-29T04:58:59;20.00;99.90
21627;DHT22;10975;47.872;12.972;2022-07-29T05:01:26;20.00;99.90
21627;DHT22;10975;47.872;12.972;2022-07-29T05:03:53;20.00;99.90
21627;DHT22;10975;47.872;12.972;2022-07-29T05:06:25;20.10;99.90
21627;DHT22;10975;47.872;12.972;2022-07-29T05:08:52;20.10;99.90
21627;DHT22;10975;47.872;12.972;2022-07-29T05:11:19;20.20;99.90
21627;DHT22;10975;47.872;12.972;2022-07-29T05:13:49;20.20;99.90
21627;DHT22;10975;47.872;12.972;2022-07-29T05:16:16;20.30;99.90
21627;DHT22;10975;47.872;12.972;2022-07-29T05:18:43;20.30;99.90
21627;DHT22;10975;47.872;12.972;2022-07-29T05:21:10;20.30;99.90
21627;DHT22;10975;47.872;12.972;2022-07-29T05:23:36;20.30;99.90
21627;DHT22;10975;47.872;12.972;2022-07-29T05:26:03;20.30;99.90
21627;DHT22;10975;47.872;12.972;2022-07-29T05:28:32;20.30;99.90
21627;DHT22;10975;47.872;12.972;2022-07-29T05:30:59;20.30;99.90
21627;DHT22;10975;47.872;12.972;2022-07-29T05:33:26;20.40;99.90
21627;DHT22;10975;47.872;12.972;2022-07-29T05:36:01;20.40;99.90
21627;DHT22;10975;47.872;12.972;2022-07-29T05:38:28;20.40;99.90
21627;DHT22;10975;47.872;12.972;2022-07-29T05:40:56;20.50;99.90
21627;DHT22;10975;47.872;12.972;2022-07-29T05:43:22;20.60;99.90
21627;DHT22;10975;47.872;12.972;2022-07-29T05:45:49;20.70;99.90
21627;DHT22;10975;47.872;12.972;2022-07-29T05:48:16;20.70;99.90
21627;DHT22;10975;47.872;12.972;2022-07-29T05:50:43;20.80;99.90
21627;DHT22;10975;47.872;12.972;2022-07-29T05:53:10;20.80;99.90
21627;DHT22;10975;47.872;12.972;2022-07-29T05:55:46;20.80;99.90
21627;DHT22;10975;47.872;12.972;2022-07-29T05:58:13;21.00;99.90
21627;DHT22;10975;47.872;12.972;2022-07-29T06:00:40;21.00;99.90
21627;DHT22;10975;47.872;12.972;2022-07-29T06:03:06;21.20;99.90
21627;DHT22;10975;47.872;12.972;2022-07-29T06:05:33;21.20;99.90
21627;DHT22;10975;47.872;12.972;2022-07-29T06:08:00;21.20;99.90
21627;DHT22;10975;47.872;12.972;2022-07-29T06:10:27;21.30;99.90
21627;DHT22;10975;47.872;12.972;2022-07-29T06:12:53;21.30;99.90
21627;DHT22;10975;47.872;12.972;2022-07-29T06:15:20;21.30;99.90
21627;DHT22;10975;47.872;12.972;2022-07-29T06:17:47;21.30;99.90
21627;DHT22;10975;47.872;12.972;2022-07-29T06:20:27;21.30;99.90
21627;DHT22;10975;47.872;12.972;2022-07-29T06:22:56;21.30;99.90
21627;DHT22;10975;47.872;12.972;2022-07-29T06:25:23;21.40;99.90
21627;DHT22;10975;47.872;12.972;2022-07-29T06:27:49;21.40;99.90
21627;DHT22;10975;47.872;12.972;2022-07-29T06:30:16;21.50;99.90
21627;DHT22;10975;47.872;12.972;2022-07-29T06:32:43;21.50;99.90
21627;DHT22;10975;47.872;12.972;2022-07-29T06:35:10;21.60;99.90
21627;DHT22;10975;47.872;12.972;2022-07-29T06:37:56;21.60;99.90
21627;DHT22;10975;47.872;12.972;2022-07-29T06:40:25;21.60;99.90
21627;DHT22;10975;47.872;12.972;2022-07-29T06:43:10;21.60;99.90
21627;DHT22;10975;47.872;12.972;2022-07-29T06:45:37;21.60;99.90
21627;DHT22;10975;47.872;12.972;2022-07-29T06:48:08;21.60;99.90
21627;DHT22;10975;47.872;12.972;2022-07-29T06:50:35;21.60;99.90
21627;DHT22;10975;47.872;12.972;2022-07-29T06:53:02;21.60;99.90
21627;DHT22;10975;47.872;12.972;2022-07-29T06:55:28;21.60;99.90
21627;DHT22;10975;47.872;12.972;2022-07-29T06:57:55;21.70;99.90
21627;DHT22;10975;47.872;12.972;2022-07-29T07:00:22;21.80;99.90
21627;DHT22;10975;47.872;12.972;2022-07-29T07:02:49;21.80;99.90
21627;DHT22;10975;47.872;12.972;2022-07-29T07:05:15;21.80;99.90
21627;DHT22;10975;47.872;12.972;2022-07-29T07:07:42;21.90;99.90
21627;DHT22;10975;47.872;12.972;2022-07-29T07:10:09;22.00;99.90
21627;DHT22;10975;47.872;12.972;2022-07-29T07:12:36;22.10;99.90
21627;DHT22;10975;47.872;12.972;2022-07-29T07:15:02;22.30;99.90
21627;DHT22;10975;47.872;12.972;2022-07-29T07:17:29;22.30;99.90
21627;DHT22;10975;47.872;12.972;2022-07-29T07:19:56;22.40;99.90
21627;DHT22;10975;47.872;12.972;2022-07-29T07:22:23;22.30;99.90
21627;DHT22;10975;47.872;12.972;2022-07-29T07:24:49;22.40;99.90
21627;DHT22;10975;47.872;12.972;2022-07-29T07:27:16;22.50;99.90
21627;DHT22;10975;47.872;12.972;2022-07-29T07:29:43;22.60;99.90
21627;DHT22;10975;47.872;12.972;2022-07-29T07:32:10;22.90;99.90
21627;DHT22;10975;47.872;12.972;2022-07-29T07:34:36;23.10;99.90
21627;DHT22;10975;47.872;12.972;2022-07-29T07:37:04;23.30;99.90
21627;DHT22;10975;47.872;12.972;2022-07-29T07:39:31;23.40;99.90
21627;DHT22;10975;47.872;12.972;2022-07-29T07:41:58;23.50;99.90
21627;DHT22;10975;47.872;12.972;2022-07-29T07:44:25;23.80;99.90
21627;DHT22;10975;47.872;12.972;2022-07-29T07:46:52;24.00;99.90
21627;DHT22;10975;47.872;12.972;2022-07-29T07:49:20;24.00;99.90
21627;DHT22;10975;47.872;12.972;2022-07-29T07:51:47;24.20;99.90
21627;DHT22;10975;47.872;12.972;2022-07-29T07:54:16;24.50;99.90
21627;DHT22;10975;47.872;12.972;2022-07-29T07:56:46;24.80;99.90
21627;DHT22;10975;47.872;12.972;2022-07-29T07:59:18;25.00;99.90
21627;DHT22;10975;47.872;12.972;2022-07-29T08:01:45;25.20;99.90
21627;DHT22;10975;47.872;12.972;2022-07-29T08:04:21;25.30;99.90
21627;DHT22;10975;47.872;12.972;2022-07-29T08:06:53;25.40;99.90
21627;DHT22;10975;47.872;12.972;2022-07-29T08:09:20;25.40;99.90
21627;DHT22;10975;47.872;12.972;2022-07-29T08:11:56;25.10;99.90
21627;DHT22;10975;47.872;12.972;2022-07-29T08:14:23;24.80;99.90
21627;DHT22;10975;47.872;12.972;2022-07-29T08:16:49;24.70;99.90
21627;DHT22;10975;47.872;12.972;2022-07-29T08:19:18;24.60;99.90
21627;DHT22;10975;47.872;12.972;2022-07-29T08:21:45;24.60;99.90
21627;DHT22;10975;47.872;12.972;2022-07-29T08:24:12;24.70;99.90
21627;DHT22;10975;47.872;12.972;2022-07-29T08:26:57;24.70;99.90
21627;DHT22;10975;47.872;12.972;2022-07-29T08:29:24;24.80;99.90
21627;DHT22;10975;47.872;12.972;2022-07-29T08:31:50;24.90;99.90
21627;DHT22;10975;47.872;12.972;2022-07-29T08:34:18;25.00;99.90
21627;DHT22;10975;47.872;12.972;2022-07-29T08:36:53;25.10;99.90
21627;DHT22;10975;47.872;12.972;2022-07-29T08:39:19;25.10;99.90
21627;DHT22;10975;47.872;12.972;2022-07-29T08:41:46;25.20;99.90
21627;DHT22;10975;47.872;12.972;2022-07-29T08:44:23;25.30;99.90
21627;DHT22;10975;47.872;12.972;2022-07-29T08:46:56;25.30;99.90
21627;DHT22;10975;47.872;12.972;2022-07-29T08:49:23;25.20;99.90
21627;DHT22;10975;47.872;12.972;2022-07-29T08:51:50;25.10;99.90
21627;DHT22;10975;47.872;12.972;2022-07-29T08:54:17;25.20;99.90
21627;DHT22;10975;47.872;12.972;2022-07-29T08:56:47;25.00;99.90
21627;DHT22;10975;47.872;12.972;2022-07-29T08:59:15;25.00;99.90
21627;DHT22;10975;47.872;12.972;2022-07-29T09:01:45;25.00;99.90
21627;DHT22;10975;47.872;12.972;2022-07-29T09:04:13;25.00;99.90
21627;DHT22;10975;47.872;12.972;2022-07-29T09:06:42;25.10;99.90
21627;DHT22;10975;47.872;12.972;2022-07-29T09:09:10;25.10;99.90
21627;DHT22;10975;47.872;12.972;2022-07-29T09:11:37;25.00;99.90
21627;DHT22;10975;47.872;12.972;2022-07-29T09:14:04;25.00;99.90
21627;DHT22;10975;47.872;12.972;2022-07-29T09:16:53;25.10;99.90
21627;DHT22;10975;47.872;12.972;2022-07-29T09:19:30;25.30;99.90
21627;DHT22;10975;47.872;12.972;2022-07-29T09:21:58;25.30;99.90
21627;DHT22;10975;47.872;12.972;2022-07-29T09:24:46;25.20;99.90
21627;DHT22;10975;47.872;12.972;2022-07-29T09:27:20;25.30;99.90
21627;DHT22;10975;47.872;12.972;2022-07-29T09:30:09;25.40;99.90
21627;DHT22;10975;47.872;12.972;2022-07-29T09:35:23;25.70;99.90
21627;DHT22;10975;47.872;12.972;2022-07-29T09:37:50;25.80;99.90
21627;DHT22;10975;47.872;12.972;2022-07-29T09:40:21;25.90;99.90
21627;DHT22;10975;47.872;12.972;2022-07-29T09:42:48;26.00;99.90
21627;DHT22;10975;47.872;12.972;2022-07-29T09:45:28;26.10;99.90
21627;DHT22;10975;47.872;12.972;2022-07-29T09:47:55;26.00;99.90
21627;DHT22;10975;47.872;12.972;2022-07-29T09:50:35;26.10;99.90
21627;DHT22;10975;47.872;12.972;2022-07-29T09:53:02;26.20;99.90
21627;DHT22;10975;47.872;12.972;2022-07-29T09:55:29;26.40;99.90
21627;DHT22;10975;47.872;12.972;2022-07-29T09:58:18;26.40;99.90
21627;DHT22;10975;47.872;12.972;2022-07-29T10:00:44;26.60;99.90
21627;DHT22;10975;47.872;12.972;2022-07-29T10:03:12;26.70;99.90
21627;DHT22;10975;47.872;12.972;2022-07-29T10:05:39;26.80;99.90
21627;DHT22;10975;47.872;12.972;2022-07-29T10:08:07;26.90;99.90
21627;DHT22;10975;47.872;12.972;2022-07-29T10:10:36;26.80;99.90
21627;DHT22;10975;47.872;12.972;2022-07-29T10:13:08;26.80;99.90
21627;DHT22;10975;47.872;12.972;2022-07-29T10:15:42;26.90;99.90
21627;DHT22;10975;47.872;12.972;2022-07-29T10:18:11;27.00;99.90
21627;DHT22;10975;47.872;12.972;2022-07-29T10:20:39;27.00;99.90
21627;DHT22;10975;47.872;12.972;2022-07-29T10:23:06;26.90;99.90
21627;DHT22;10975;47.872;12.972;2022-07-29T10:25:32;26.90;99.90
21627;DHT22;10975;47.872;12.972;2022-07-29T10:27:59;27.00;99.90
21627;DHT22;10975;47.872;12.972;2022-07-29T10:30:26;27.10;99.90
21627;DHT22;10975;47.872;12.972;2022-07-29T10:33:08;27.10;99.90
21627;DHT22;10975;47.872;12.972;2022-07-29T10:40:50;27.20;99.90
21627;DHT22;10975;47.872;12.972;2022-07-29T10:43:37;27.10;99.90
21627;DHT22;10975;47.872;12.972;2022-07-29T10:46:07;27.20;99.90
21627;DHT22;10975;47.872;12.972;2022-07-29T10:49:03;27.20;99.90
21627;DHT22;10975;47.872;12.972;2022-07-29T10:51:23;27.10;99.90
21627;DHT22;10975;47.872;12.972;2022-07-29T10:53:51;26.90;99.90
21627;DHT22;10975;47.872;12.972;2022-07-29T10:56:29;26.90;99.90
21627;DHT22;10975;47.872;12.972;2022-07-29T11:01:42;27.00;99.90
21627;DHT22;10975;47.872;12.972;2022-07-29T11:09:33;26.90;99.90
21627;DHT22;10975;47.872;12.972;2022-07-29T11:12:45;27.00;99.90
21627;DHT22;10975;47.872;12.972;2022-07-29T11:17:18;27.10;99.90
21627;DHT22;10975;47.872;12.972;2022-07-29T11:19:46;27.10;99.90
21627;DHT22;10975;47.872;12.972;2022-07-29T11:22:33;27.20;99.90
21627;DHT22;10975;47.872;12.972;2022-07-29T11:25:13;27.10;99.90
21627;DHT22;10975;47.872;12.972;2022-07-29T11:27:42;27.10;99.90
21627;DHT22;10975;47.872;12.972;2022-07-29T11:30:11;27.10;99.90
21627;DHT22;10975;47.872;12.972;2022-07-29T11:32:43;27.10;99.90
21627;DHT22;10975;47.872;12.972;2022-07-29T11:35:16;27.20;99.90
21627;DHT22;10975;47.872;12.972;2022-07-29T11:37:45;27.20;99.90
21627;DHT22;10975;47.872;12.972;2022-07-29T11:40:21;27.20;99.90
21627;DHT22;10975;47.872;12.972;2022-07-29T11:42:48;27.40;99.90
21627;DHT22;10975;47.872;12.972;2022-07-29T11:45:19;27.50;99.90
21627;DHT22;10975;47.872;12.972;2022-07-29T11:48:06;27.50;99.90
21627;DHT22;10975;47.872;12.972;2022-07-29T11:50:53;27.60;99.90
21627;DHT22;10975;47.872;12.972;2022-07-29T11:53:20;27.50;99.90
21627;DHT22;10975;47.872;12.972;2022-07-29T11:55:47;27.50;99.90
21627;DHT22;10975;47.872;12.972;2022-07-29T11:58:21;27.60;99.90
21627;DHT22;10975;47.872;12.972;2022-07-29T12:01:08;27.80;99.90
21627;DHT22;10975;47.872;12.972;2022-07-29T12:03:39;27.80;99.90
21627;DHT22;10975;47.872;12.972;2022-07-29T12:06:12;27.50;99.90
21627;DHT22;10975;47.872;12.972;2022-07-29T12:08:41;27.30;99.90
21627;DHT22;10975;47.872;12.972;2022-07-29T12:11:16;27.50;99.90
21627;DHT22;10975;47.872;12.972;2022-07-29T12:13:46;27.60;99.90
21627;DHT22;10975;47.872;12.972;2022-07-29T12:16:15;27.70;99.90
21627;DHT22;10975;47.872;12.972;2022-07-29T12:19:09;27.70;99.90
21627;DHT22;10975;47.872;12.972;2022-07-29T12:21:46;27.70;99.90
21627;DHT22;10975;47.872;12.972;2022-07-29T12:24:23;27.80;99.90
21627;DHT22;10975;47.872;12.972;2022-07-29T12:26:59;27.70;99.90
21627;DHT22;10975;47.872;12.972;2022-07-29T12:29:27;27.90;99.90
21627;DHT22;10975;47.872;12.972;2022-07-29T12:32:01;27.90;99.90
21627;DHT22;10975;47.872;12.972;2022-07-29T12:34:29;27.90;99.90
21627;DHT22;10975;47.872;12.972;2022-07-29T12:36:56;28.00;99.90
21627;DHT22;10975;47.872;12.972;2022-07-29T12:39:23;28.00;99.90
21627;DHT22;10975;47.872;12.972;2022-07-29T12:41:53;28.10;99.90
21627;DHT22;10975;47.872;12.972;2022-07-29T12:44:49;28.20;99.90
21627;DHT22;10975;47.872;12.972;2022-07-29T12:47:16;28.40;99.90
21627;DHT22;10975;47.872;12.972;2022-07-29T12:49:44;28.40;99.90
21627;DHT22;10975;47.872;12.972;2022-07-29T12:52:31;28.30;99.90
21627;DHT22;10975;47.872;12.972;2022-07-29T12:54:58;28.30;99.90
21627;DHT22;10975;47.872;12.972;2022-07-29T12:57:25;28.50;99.90
21627;DHT22;10975;47.872;12.972;2022-07-29T12:59:59;28.20;99.90
21627;DHT22;10975;47.872;12.972;2022-07-29T13:02:25;28.30;99.90
21627;DHT22;10975;47.872;12.972;2022-07-29T13:04:56;28.30;99.90
21627;DHT22;10975;47.872;12.972;2022-07-29T13:07:25;28.30;99.90
21627;DHT22;10975;47.872;12.972;2022-07-29T13:10:19;28.30;99.90
21627;DHT22;10975;47.872;12.972;2022-07-29T13:13:32;28.50;99.90
21627;DHT22;10975;47.872;12.972;2022-07-29T13:15:40;28.50;99.90
21627;DHT22;10975;47.872;12.972;2022-07-29T13:18:29;28.40;99.90
21627;DHT22;10975;47.872;12.972;2022-07-29T13:20:57;28.40;99.90
21627;DHT22;10975;47.872;12.972;2022-07-29T13:23:37;28.50;99.90
21627;DHT22;10975;47.872;12.972;2022-07-29T13:26:07;28.50;99.90
21627;DHT22;10975;47.872;12.972;2022-07-29T13:28:34;28.40;99.90
21627;DHT22;10975;47.872;12.972;2022-07-29T13:31:01;28.50;99.90
21627;DHT22;10975;47.872;12.972;2022-07-29T13:33:28;28.60;99.90
21627;DHT22;10975;47.872;12.972;2022-07-29T13:35:56;28.60;99.90
21627;DHT22;10975;47.872;12.972;2022-07-29T13:38:23;28.60;99.90
21627;DHT22;10975;47.872;12.972;2022-07-29T13:40:56;28.60;99.90
21627;DHT22;10975;47.872;12.972;2022-07-29T13:43:23;28.50;99.90
21627;DHT22;10975;47.872;12.972;2022-07-29T13:45:50;28.70;99.90
21627;DHT22;10975;47.872;12.972;2022-07-29T13:48:17;28.70;99.90
21627;DHT22;10975;47.872;12.972;2022-07-29T13:50:43;28.70;99.90
21627;DHT22;10975;47.872;12.972;2022-07-29T13:53:12;28.60;99.90
21627;DHT22;10975;47.872;12.972;2022-07-29T13:55:43;28.60;99.90
21627;DHT22;10975;47.872;12.972;2022-07-29T13:58:10;28.70;99.90
21627;DHT22;10975;47.872;12.972;2022-07-29T14:00:37;28.70;99.90
21627;DHT22;10975;47.872;12.972;2022-07-29T14:03:04;28.80;99.90
21627;DHT22;10975;47.872;12.972;2022-07-29T14:05:30;28.70;99.80
21627;DHT22;10975;47.872;12.972;2022-07-29T14:07:57;28.80;99.90
21627;DHT22;10975;47.872;12.972;2022-07-29T14:10:24;28.70;99.70
21627;DHT22;10975;47.872;12.972;2022-07-29T14:12:51;28.80;99.20
21627;DHT22;10975;47.872;12.972;2022-07-29T14:15:17;28.90;99.40
21627;DHT22;10975;47.872;12.972;2022-07-29T14:17:44;28.90;99.20
21627;DHT22;10975;47.872;12.972;2022-07-29T14:20:11;28.90;98.70
21627;DHT22;10975;47.872;12.972;2022-07-29T14:22:37;28.80;97.60
21627;DHT22;10975;47.872;12.972;2022-07-29T14:25:08;28.90;99.90
21627;DHT22;10975;47.872;12.972;2022-07-29T14:27:41;28.90;99.90
21627;DHT22;10975;47.872;12.972;2022-07-29T14:30:08;28.90;99.90
21627;DHT22;10975;47.872;12.972;2022-07-29T14:32:35;28.90;99.90
21627;DHT22;10975;47.872;12.972;2022-07-29T14:35:02;29.00;99.00
21627;DHT22;10975;47.872;12.972;2022-07-29T14:37:28;28.90;99.50
21627;DHT22;10975;47.872;12.972;2022-07-29T14:40:05;29.00;99.50
21627;DHT22;10975;47.872;12.972;2022-07-29T14:42:32;29.00;99.90
21627;DHT22;10975;47.872;12.972;2022-07-29T14:44:59;29.00;99.90
21627;DHT22;10975;47.872;12.972;2022-07-29T14:47:26;29.00;99.90
21627;DHT22;10975;47.872;12.972;2022-07-29T14:49:53;28.90;98.30
21627;DHT22;10975;47.872;12.972;2022-07-29T14:52:20;28.80;99.80
21627;DHT22;10975;47.872;12.972;2022-07-29T14:54:46;29.00;99.50
21627;DHT22;10975;47.872;12.972;2022-07-29T14:57:13;29.20;99.90
21627;DHT22;10975;47.872;12.972;2022-07-29T14:59:40;29.40;99.90
21627;DHT22;10975;47.872;12.972;2022-07-29T15:02:06;29.20;99.10
21627;DHT22;10975;47.872;12.972;2022-07-29T15:04:33;29.10;98.90
21627;DHT22;10975;47.872;12.972;2022-07-29T15:07:01;28.90;99.40
21627;DHT22;10975;47.872;12.972;2022-07-29T15:09:28;28.80;99.90
21627;DHT22;10975;47.872;12.972;2022-07-29T15:11:55;28.70;99.90
21627;DHT22;10975;47.872;12.972;2022-07-29T15:14:22;29.00;99.90
21627;DHT22;10975;47.872;12.972;2022-07-29T15:16:49;29.20;98.20
21627;DHT22;10975;47.872;12.972;2022-07-29T15:19:18;29.40;99.20
21627;DHT22;10975;47.872;12.972;2022-07-29T15:21:45;29.50;98.50
21627;DHT22;10975;47.872;12.972;2022-07-29T15:24:17;29.60;99.00
21627;DHT22;10975;47.872;12.972;2022-07-29T15:26:45;29.70;96.50
21627;DHT22;10975;47.872;12.972;2022-07-29T15:29:12;29.60;96.40
21627;DHT22;10975;47.872;12.972;2022-07-29T15:31:39;29.40;97.20
21627;DHT22;10975;47.872;12.972;2022-07-29T15:34:06;29.20;96.40
21627;DHT22;10975;47.872;12.972;2022-07-29T15:36:33;29.10;96.40
21627;DHT22;10975;47.872;12.972;2022-07-29T15:39:17;29.10;97.30
21627;DHT22;10975;47.872;12.972;2022-07-29T15:41:44;29.20;96.50
21627;DHT22;10975;47.872;12.972;2022-07-29T15:44:11;29.00;96.50
21627;DHT22;10975;47.872;12.972;2022-07-29T15:46:37;29.00;96.70
21627;DHT22;10975;47.872;12.972;2022-07-29T15:49:23;28.80;97.20
21627;DHT22;10975;47.872;12.972;2022-07-29T15:52:14;28.80;97.10
21627;DHT22;10975;47.872;12.972;2022-07-29T15:54:41;28.90;97.30
21627;DHT22;10975;47.872;12.972;2022-07-29T15:57:08;29.10;98.10
21627;DHT22;10975;47.872;12.972;2022-07-29T15:59:35;29.30;97.70
21627;DHT22;10975;47.872;12.972;2022-07-29T16:02:02;29.40;98.30
21627;DHT22;10975;47.872;12.972;2022-07-29T16:04:29;29.40;98.30